sensor_id;sensor_type;location;lat;lon;timestamp;P1;durP1;ratioP1;P2;durP2;ratioP2
22382;SDS011;11359;45.802;13.530;2023-03-01T00:00:27;4.78;;;3.85;;
22382;SDS011;11359;45.802;13.530;2023-03-01T00:02:53;4.82;;;3.95;;
22382;SDS011;11359;45.802;13.530;2023-03-01T00:05:20;4.57;;;3.35;;
22382;SDS011;11359;45.802;13.530;2023-03-01T00:07:46;5.80;;;4.53;;
22382;SDS011;11359;45.802;13.530;2023-03-01T00:10:12;8.13;;;6.22;;
22382;SDS011;11359;45.802;13.530;2023-03-01T00:12:38;7.50;;;6.07;;
22382;SDS011;11359;45.802;13.530;2023-03-01T00:15:03;6.35;;;5.20;;
22382;SDS011;11359;45.802;13.530;2023-03-01T00:17:30;7.45;;;5.28;;
22382;SDS011;11359;45.802;13.530;2023-03-01T00:19:58;7.70;;;5.32;;
22382;SDS011;11359;45.802;13.530;2023-03-01T00:22:26;6.45;;;4.72;;
22382;SDS011;11359;45.802;13.530;2023-03-01T00:24:53;5.13;;;4.18;;
22382;SDS011;11359;45.802;13.530;2023-03-01T00:27:20;5.45;;;4.13;;
22382;SDS011;11359;45.802;13.530;2023-03-01T00:29:45;6.20;;;4.95;;
22382;SDS011;11359;45.802;13.530;2023-03-01T00:32:11;7.00;;;4.93;;
22382;SDS011;11359;45.802;13.530;2023-03-01T00:34:38;7.57;;;5.80;;
22382;SDS011;11359;45.802;13.530;2023-03-01T00:37:06;7.28;;;5.82;;
22382;SDS011;11359;45.802;13.530;2023-03-01T00:39:32;6.72;;;4.97;;
22382;SDS011;11359;45.802;13.530;2023-03-01T00:41:58;7.40;;;5.43;;
22382;SDS011;11359;45.802;13.530;2023-03-01T00:44:24;9.55;;;6.90;;
22382;SDS011;11359;45.802;13.530;2023-03-01T00:46:50;7.28;;;5.65;;
22382;SDS011;11359;45.802;13.530;2023-03-01T00:49:15;7.22;;;5.40;;
22382;SDS011;11359;45.802;13.530;2023-03-01T00:51:41;5.88;;;4.47;;
22382;SDS011;11359;45.802;13.530;2023-03-01T00:54:07;5.55;;;4.15;;
22382;SDS011;11359;45.802;13.530;2023-03-01T00:56:34;7.03;;;4.60;;
22382;SDS011;11359;45.802;13.530;2023-03-01T00:59:00;8.13;;;6.10;;
22382;SDS011;11359;45.802;13.530;2023-03-01T01:01:27;8.30;;;5.38;;
22382;SDS011;11359;45.802;13.530;2023-03-01T01:03:56;7.97;;;6.30;;
22382;SDS011;11359;45.802;13.530;2023-03-01T01:06:24;6.88;;;5.55;;
22382;SDS011;11359;45.802;13.530;2023-03-01T01:08:55;6.68;;;5.30;;
22382;SDS011;11359;45.802;13.530;2023-03-01T01:11:22;6.20;;;4.93;;
22382;SDS011;11359;45.802;13.530;2023-03-01T01:13:50;7.70;;;5.55;;
22382;SDS011;11359;45.802;13.530;2023-03-01T01:16:17;8.32;;;6.35;;
22382;SDS011;11359;45.802;13.530;2023-03-01T01:18:44;7.10;;;5.70;;
22382;SDS011;11359;45.802;13.530;2023-03-01T01:21:11;7.97;;;5.53;;
22382;SDS011;11359;45.802;13.530;2023-03-01T01:23:38;10.25;;;7.47;;
22382;SDS011;11359;45.802;13.530;2023-03-01T01:26:27;8.57;;;6.53;;
22382;SDS011;11359;45.802;13.530;2023-03-01T01:28:52;8.00;;;5.65;;
22382;SDS011;11359;45.802;13.530;2023-03-01T01:31:19;7.47;;;5.57;;
22382;SDS011;11359;45.802;13.530;2023-03-01T01:33:45;7.70;;;5.40;;
22382;SDS011;11359;45.802;13.530;2023-03-01T01:36:11;8.20;;;6.35;;
22382;SDS011;11359;45.802;13.530;2023-03-01T01:38:37;6.07;;;4.85;;
22382;SDS011;11359;45.802;13.530;2023-03-01T01:41:04;6.45;;;4.82;;
22382;SDS011;11359;45.802;13.530;2023-03-01T01:43:34;10.90;;;7.15;;
22382;SDS011;11359;45.802;13.530;2023-03-01T01:46:25;10.88;;;7.03;;
22382;SDS011;11359;45.802;13.530;2023-03-01T01:49:07;9.10;;;6.43;;
22382;SDS011;11359;45.802;13.530;2023-03-01T01:52:39;7.70;;;5.82;;
22382;SDS011;11359;45.802;13.530;2023-03-01T01:54:56;8.25;;;6.03;;
22382;SDS011;11359;45.802;13.530;2023-03-01T01:57:47;7.82;;;5.70;;
22382;SDS011;11359;45.802;13.530;2023-03-01T02:00:22;7.35;;;5.03;;
22382;SDS011;11359;45.802;13.530;2023-03-01T02:02:51;7.32;;;5.43;;
22382;SDS011;11359;45.802;13.530;2023-03-01T02:05:36;7.18;;;5.70;;
22382;SDS011;11359;45.802;13.530;2023-03-01T02:08:16;8.57;;;5.97;;
22382;SDS011;11359;45.802;13.530;2023-03-01T02:10:45;8.50;;;6.07;;
22382;SDS011;11359;45.802;13.530;2023-03-01T02:13:11;8.60;;;6.07;;
22382;SDS011;11359;45.802;13.530;2023-03-01T02:15:38;8.93;;;6.72;;
22382;SDS011;11359;45.802;13.530;2023-03-01T02:18:05;9.18;;;6.47;;
22382;SDS011;11359;45.802;13.530;2023-03-01T02:23:10;9.13;;;6.70;;
22382;SDS011;11359;45.802;13.530;2023-03-01T02:30:33;7.93;;;6.15;;
22382;SDS011;11359;45.802;13.530;2023-03-01T02:33:00;8.43;;;5.90;;
22382;SDS011;11359;45.802;13.530;2023-03-01T02:35:33;9.45;;;6.47;;
22382;SDS011;11359;45.802;13.530;2023-03-01T02:38:02;8.00;;;5.82;;
22382;SDS011;11359;45.802;13.530;2023-03-01T02:40:31;6.70;;;5.57;;
22382;SDS011;11359;45.802;13.530;2023-03-01T02:43:00;8.90;;;7.13;;
22382;SDS011;11359;45.802;13.530;2023-03-01T02:45:29;8.60;;;6.78;;
22382;SDS011;11359;45.802;13.530;2023-03-01T02:47:55;8.18;;;5.75;;
22382;SDS011;11359;45.802;13.530;2023-03-01T02:55:43;8.15;;;5.38;;
22382;SDS011;11359;45.802;13.530;2023-03-01T02:58:09;8.85;;;6.60;;
22382;SDS011;11359;45.802;13.530;2023-03-01T03:00:36;7.20;;;5.57;;
22382;SDS011;11359;45.802;13.530;2023-03-01T03:03:05;7.60;;;5.68;;
22382;SDS011;11359;45.802;13.530;2023-03-01T03:05:32;8.93;;;6.35;;
22382;SDS011;11359;45.802;13.530;2023-03-01T03:08:00;9.38;;;6.50;;
22382;SDS011;11359;45.802;13.530;2023-03-01T03:10:31;8.88;;;6.32;;
22382;SDS011;11359;45.802;13.530;2023-03-01T03:13:04;8.65;;;6.00;;
22382;SDS011;11359;45.802;13.530;2023-03-01T03:15:32;6.45;;;5.07;;
22382;SDS011;11359;45.802;13.530;2023-03-01T03:18:02;7.80;;;5.45;;
22382;SDS011;11359;45.802;13.530;2023-03-01T03:20:29;7.68;;;5.88;;
22382;SDS011;11359;45.802;13.530;2023-03-01T03:22:56;5.85;;;4.80;;
22382;SDS011;11359;45.802;13.530;2023-03-01T03:25:26;5.88;;;4.63;;
22382;SDS011;11359;45.802;13.530;2023-03-01T03:27:53;9.93;;;7.13;;
22382;SDS011;11359;45.802;13.530;2023-03-01T03:30:22;9.27;;;7.15;;
22382;SDS011;11359;45.802;13.530;2023-03-01T03:32:50;9.65;;;6.70;;
22382;SDS011;11359;45.802;13.530;2023-03-01T03:35:20;8.13;;;5.78;;
22382;SDS011;11359;45.802;13.530;2023-03-01T03:37:49;7.97;;;5.55;;
22382;SDS011;11359;45.802;13.530;2023-03-01T03:40:29;8.23;;;5.47;;
22382;SDS011;11359;45.802;13.530;2023-03-01T03:42:57;9.98;;;7.25;;
22382;SDS011;11359;45.802;13.530;2023-03-01T03:45:23;7.75;;;5.95;;
22382;SDS011;11359;45.802;13.530;2023-03-01T03:47:49;8.82;;;7.07;;
22382;SDS011;11359;45.802;13.530;2023-03-01T03:50:15;9.57;;;7.18;;
22382;SDS011;11359;45.802;13.530;2023-03-01T03:52:42;8.25;;;6.63;;
22382;SDS011;11359;45.802;13.530;2023-03-01T03:55:09;8.45;;;6.13;;
22382;SDS011;11359;45.802;13.530;2023-03-01T03:57:36;7.40;;;5.60;;
22382;SDS011;11359;45.802;13.530;2023-03-01T04:00:03;9.35;;;6.57;;
22382;SDS011;11359;45.802;13.530;2023-03-01T04:02:31;7.50;;;5.95;;
22382;SDS011;11359;45.802;13.530;2023-03-01T04:04:57;10.82;;;8.05;;
22382;SDS011;11359;45.802;13.530;2023-03-01T04:07:22;11.25;;;7.75;;
22382;SDS011;11359;45.802;13.530;2023-03-01T04:09:48;9.93;;;7.05;;
22382;SDS011;11359;45.802;13.530;2023-03-01T04:12:14;8.48;;;6.20;;
22382;SDS011;11359;45.802;13.530;2023-03-01T04:14:45;9.52;;;6.85;;
22382;SDS011;11359;45.802;13.530;2023-03-01T04:17:11;10.32;;;6.70;;
22382;SDS011;11359;45.802;13.530;2023-03-01T04:19:37;9.05;;;7.20;;
22382;SDS011;11359;45.802;13.530;2023-03-01T04:22:03;8.68;;;6.43;;
22382;SDS011;11359;45.802;13.530;2023-03-01T04:24:34;8.73;;;6.60;;
22382;SDS011;11359;45.802;13.530;2023-03-01T04:27:01;9.98;;;7.25;;
22382;SDS011;11359;45.802;13.530;2023-03-01T04:29:27;7.45;;;6.03;;
22382;SDS011;11359;45.802;13.530;2023-03-01T04:31:53;11.27;;;6.53;;
22382;SDS011;11359;45.802;13.530;2023-03-01T04:34:19;8.50;;;6.00;;
22382;SDS011;11359;45.802;13.530;2023-03-01T04:36:45;8.10;;;6.60;;
22382;SDS011;11359;45.802;13.530;2023-03-01T04:39:10;11.10;;;8.27;;
22382;SDS011;11359;45.802;13.530;2023-03-01T04:41:39;8.95;;;7.00;;
22382;SDS011;11359;45.802;13.530;2023-03-01T04:44:06;9.70;;;7.68;;
22382;SDS011;11359;45.802;13.530;2023-03-01T04:46:34;10.60;;;7.80;;
22382;SDS011;11359;45.802;13.530;2023-03-01T04:49:01;11.40;;;7.85;;
22382;SDS011;11359;45.802;13.530;2023-03-01T04:51:28;8.52;;;6.85;;
22382;SDS011;11359;45.802;13.530;2023-03-01T04:53:54;8.90;;;6.43;;
22382;SDS011;11359;45.802;13.530;2023-03-01T04:56:20;8.15;;;6.38;;
22382;SDS011;11359;45.802;13.530;2023-03-01T04:58:48;6.75;;;5.40;;
22382;SDS011;11359;45.802;13.530;2023-03-01T05:01:18;7.13;;;5.85;;
22382;SDS011;11359;45.802;13.530;2023-03-01T05:03:47;6.40;;;5.28;;
22382;SDS011;11359;45.802;13.530;2023-03-01T05:06:15;7.80;;;6.25;;
22382;SDS011;11359;45.802;13.530;2023-03-01T05:08:42;8.35;;;5.70;;
22382;SDS011;11359;45.802;13.530;2023-03-01T05:11:09;7.95;;;5.95;;
22382;SDS011;11359;45.802;13.530;2023-03-01T05:13:36;8.00;;;6.05;;
22382;SDS011;11359;45.802;13.530;2023-03-01T05:16:03;7.93;;;5.63;;
22382;SDS011;11359;45.802;13.530;2023-03-01T05:18:30;9.43;;;6.88;;
22382;SDS011;11359;45.802;13.530;2023-03-01T05:21:03;8.55;;;6.65;;
22382;SDS011;11359;45.802;13.530;2023-03-01T05:23:31;9.10;;;6.93;;
22382;SDS011;11359;45.802;13.530;2023-03-01T05:25:58;10.52;;;7.28;;
22382;SDS011;11359;45.802;13.530;2023-03-01T05:28:25;11.02;;;7.35;;
22382;SDS011;11359;45.802;13.530;2023-03-01T05:30:53;9.40;;;7.05;;
22382;SDS011;11359;45.802;13.530;2023-03-01T05:33:19;9.50;;;7.50;;
22382;SDS011;11359;45.802;13.530;2023-03-01T05:35:47;9.60;;;7.10;;
22382;SDS011;11359;45.802;13.530;2023-03-01T05:38:14;9.60;;;7.15;;
22382;SDS011;11359;45.802;13.530;2023-03-01T05:40:44;9.25;;;6.82;;
22382;SDS011;11359;45.802;13.530;2023-03-01T05:43:12;9.18;;;6.82;;
22382;SDS011;11359;45.802;13.530;2023-03-01T05:45:39;8.85;;;6.68;;
22382;SDS011;11359;45.802;13.530;2023-03-01T05:48:07;8.65;;;6.20;;
22382;SDS011;11359;45.802;13.530;2023-03-01T05:50:38;10.70;;;7.00;;
22382;SDS011;11359;45.802;13.530;2023-03-01T05:53:08;11.25;;;7.70;;
22382;SDS011;11359;45.802;13.530;2023-03-01T05:55:42;12.30;;;8.82;;
22382;SDS011;11359;45.802;13.530;2023-03-01T05:58:12;10.43;;;8.10;;
22382;SDS011;11359;45.802;13.530;2023-03-01T06:00:40;11.20;;;8.55;;
22382;SDS011;11359;45.802;13.530;2023-03-01T06:03:06;12.32;;;8.73;;
22382;SDS011;11359;45.802;13.530;2023-03-01T06:05:34;10.77;;;8.48;;
22382;SDS011;11359;45.802;13.530;2023-03-01T06:08:00;10.00;;;7.70;;
22382;SDS011;11359;45.802;13.530;2023-03-01T06:10:26;10.02;;;7.25;;
22382;SDS011;11359;45.802;13.530;2023-03-01T06:12:52;9.30;;;6.78;;
22382;SDS011;11359;45.802;13.530;2023-03-01T06:15:18;9.20;;;6.65;;
22382;SDS011;11359;45.802;13.530;2023-03-01T06:17:45;9.45;;;6.95;;
22382;SDS011;11359;45.802;13.530;2023-03-01T06:20:18;10.48;;;7.95;;
22382;SDS011;11359;45.802;13.530;2023-03-01T06:25:12;9.77;;;7.03;;
22382;SDS011;11359;45.802;13.530;2023-03-01T06:27:40;10.10;;;6.90;;
22382;SDS011;11359;45.802;13.530;2023-03-01T06:30:07;10.23;;;7.90;;
22382;SDS011;11359;45.802;13.530;2023-03-01T06:32:35;9.80;;;7.35;;
22382;SDS011;11359;45.802;13.530;2023-03-01T06:35:02;10.02;;;7.45;;
22382;SDS011;11359;45.802;13.530;2023-03-01T06:37:29;12.63;;;9.80;;
22382;SDS011;11359;45.802;13.530;2023-03-01T06:39:54;12.23;;;9.20;;
22382;SDS011;11359;45.802;13.530;2023-03-01T06:42:20;9.82;;;7.22;;
22382;SDS011;11359;45.802;13.530;2023-03-01T06:44:46;9.88;;;7.38;;
22382;SDS011;11359;45.802;13.530;2023-03-01T06:47:15;10.45;;;7.72;;
22382;SDS011;11359;45.802;13.530;2023-03-01T06:49:41;10.23;;;7.47;;
22382;SDS011;11359;45.802;13.530;2023-03-01T06:52:07;8.10;;;6.50;;
22382;SDS011;11359;45.802;13.530;2023-03-01T06:54:32;10.02;;;7.45;;
22382;SDS011;11359;45.802;13.530;2023-03-01T06:56:58;9.27;;;7.22;;
22382;SDS011;11359;45.802;13.530;2023-03-01T06:59:24;10.10;;;7.85;;
22382;SDS011;11359;45.802;13.530;2023-03-01T07:01:49;11.45;;;8.57;;
22382;SDS011;11359;45.802;13.530;2023-03-01T07:04:15;11.07;;;8.35;;
22382;SDS011;11359;45.802;13.530;2023-03-01T07:06:44;11.93;;;9.02;;
22382;SDS011;11359;45.802;13.530;2023-03-01T07:09:09;9.95;;;7.97;;
22382;SDS011;11359;45.802;13.530;2023-03-01T07:11:35;9.98;;;7.38;;
22382;SDS011;11359;45.802;13.530;2023-03-01T07:14:01;11.63;;;8.90;;
22382;SDS011;11359;45.802;13.530;2023-03-01T07:16:26;11.05;;;7.93;;
22382;SDS011;11359;45.802;13.530;2023-03-01T07:18:52;7.18;;;6.25;;
22382;SDS011;11359;45.802;13.530;2023-03-01T07:21:18;10.18;;;7.50;;
22382;SDS011;11359;45.802;13.530;2023-03-01T07:23:43;10.93;;;7.72;;
22382;SDS011;11359;45.802;13.530;2023-03-01T07:26:13;10.90;;;8.20;;
22382;SDS011;11359;45.802;13.530;2023-03-01T07:28:38;8.75;;;6.88;;
22382;SDS011;11359;45.802;13.530;2023-03-01T07:31:05;10.95;;;8.35;;
22382;SDS011;11359;45.802;13.530;2023-03-01T07:33:31;11.10;;;8.65;;
22382;SDS011;11359;45.802;13.530;2023-03-01T07:35:58;11.85;;;8.57;;
22382;SDS011;11359;45.802;13.530;2023-03-01T07:38:25;9.88;;;7.90;;
22382;SDS011;11359;45.802;13.530;2023-03-01T07:40:59;12.27;;;9.38;;
22382;SDS011;11359;45.802;13.530;2023-03-01T07:43:26;9.93;;;7.93;;
22382;SDS011;11359;45.802;13.530;2023-03-01T07:45:54;9.95;;;7.63;;
22382;SDS011;11359;45.802;13.530;2023-03-01T07:48:19;9.32;;;6.60;;
22382;SDS011;11359;45.802;13.530;2023-03-01T07:50:45;8.10;;;6.70;;
22382;SDS011;11359;45.802;13.530;2023-03-01T07:53:11;9.82;;;7.07;;
22382;SDS011;11359;45.802;13.530;2023-03-01T07:55:37;9.20;;;6.85;;
22382;SDS011;11359;45.802;13.530;2023-03-01T07:58:03;10.75;;;7.90;;
22382;SDS011;11359;45.802;13.530;2023-03-01T08:00:29;9.35;;;7.35;;
22382;SDS011;11359;45.802;13.530;2023-03-01T08:02:54;8.75;;;6.65;;
22382;SDS011;11359;45.802;13.530;2023-03-01T08:05:24;12.70;;;8.40;;
22382;SDS011;11359;45.802;13.530;2023-03-01T08:07:50;11.48;;;7.97;;
22382;SDS011;11359;45.802;13.530;2023-03-01T08:10:15;11.10;;;7.03;;
22382;SDS011;11359;45.802;13.530;2023-03-01T08:12:41;8.10;;;6.25;;
22382;SDS011;11359;45.802;13.530;2023-03-01T08:15:07;8.65;;;6.70;;
22382;SDS011;11359;45.802;13.530;2023-03-01T08:17:33;8.45;;;6.40;;
22382;SDS011;11359;45.802;13.530;2023-03-01T08:19:59;9.43;;;7.10;;
22382;SDS011;11359;45.802;13.530;2023-03-01T08:22:25;10.40;;;8.00;;
22382;SDS011;11359;45.802;13.530;2023-03-01T08:24:50;14.80;;;9.07;;
22382;SDS011;11359;45.802;13.530;2023-03-01T08:27:16;10.45;;;8.13;;
22382;SDS011;11359;45.802;13.530;2023-03-01T08:29:42;9.50;;;7.43;;
22382;SDS011;11359;45.802;13.530;2023-03-01T08:32:07;10.50;;;7.88;;
22382;SDS011;11359;45.802;13.530;2023-03-01T08:34:34;9.00;;;7.28;;
22382;SDS011;11359;45.802;13.530;2023-03-01T08:37:00;9.70;;;7.10;;
22382;SDS011;11359;45.802;13.530;2023-03-01T08:39:26;8.20;;;6.30;;
22382;SDS011;11359;45.802;13.530;2023-03-01T08:41:53;8.07;;;6.05;;
22382;SDS011;11359;45.802;13.530;2023-03-01T08:44:19;7.78;;;6.07;;
22382;SDS011;11359;45.802;13.530;2023-03-01T08:46:46;9.88;;;7.38;;
22382;SDS011;11359;45.802;13.530;2023-03-01T08:49:16;7.72;;;6.25;;
22382;SDS011;11359;45.802;13.530;2023-03-01T08:51:49;7.97;;;5.47;;
22382;SDS011;11359;45.802;13.530;2023-03-01T08:54:18;7.03;;;5.25;;
22382;SDS011;11359;45.802;13.530;2023-03-01T08:56:45;6.05;;;5.03;;
22382;SDS011;11359;45.802;13.530;2023-03-01T08:59:12;6.72;;;5.68;;
22382;SDS011;11359;45.802;13.530;2023-03-01T09:01:39;7.78;;;5.80;;
22382;SDS011;11359;45.802;13.530;2023-03-01T09:04:08;7.68;;;5.13;;
22382;SDS011;11359;45.802;13.530;2023-03-01T09:06:34;9.95;;;7.03;;
22382;SDS011;11359;45.802;13.530;2023-03-01T09:09:00;9.57;;;6.22;;
22382;SDS011;11359;45.802;13.530;2023-03-01T09:11:28;11.15;;;8.02;;
22382;SDS011;11359;45.802;13.530;2023-03-01T09:13:54;9.30;;;7.30;;
22382;SDS011;11359;45.802;13.530;2023-03-01T09:16:21;8.95;;;6.10;;
22382;SDS011;11359;45.802;13.530;2023-03-01T09:18:48;6.93;;;5.88;;
22382;SDS011;11359;45.802;13.530;2023-03-01T09:21:20;10.45;;;6.50;;
22382;SDS011;11359;45.802;13.530;2023-03-01T09:23:48;8.52;;;6.03;;
22382;SDS011;11359;45.802;13.530;2023-03-01T09:26:17;8.25;;;6.15;;
22382;SDS011;11359;45.802;13.530;2023-03-01T09:28:46;7.88;;;5.60;;
22382;SDS011;11359;45.802;13.530;2023-03-01T09:31:13;7.00;;;5.40;;
22382;SDS011;11359;45.802;13.530;2023-03-01T09:33:40;8.38;;;5.30;;
22382;SDS011;11359;45.802;13.530;2023-03-01T09:36:09;7.07;;;5.43;;
22382;SDS011;11359;45.802;13.530;2023-03-01T09:38:42;9.15;;;6.20;;
22382;SDS011;11359;45.802;13.530;2023-03-01T09:41:18;8.25;;;6.50;;
22382;SDS011;11359;45.802;13.530;2023-03-01T09:46:52;6.93;;;5.38;;
22382;SDS011;11359;45.802;13.530;2023-03-01T09:52:29;8.63;;;6.25;;
22382;SDS011;11359;45.802;13.530;2023-03-01T09:54:47;8.60;;;6.30;;
22382;SDS011;11359;45.802;13.530;2023-03-01T10:00:02;7.70;;;6.20;;
22382;SDS011;11359;45.802;13.530;2023-03-01T10:02:45;8.23;;;5.68;;
22382;SDS011;11359;45.802;13.530;2023-03-01T10:08:40;8.43;;;6.60;;
22382;SDS011;11359;45.802;13.530;2023-03-01T10:11:31;8.75;;;6.72;;
22382;SDS011;11359;45.802;13.530;2023-03-01T10:17:20;9.75;;;6.72;;
22382;SDS011;11359;45.802;13.530;2023-03-01T10:19:49;8.48;;;6.22;;
22382;SDS011;11359;45.802;13.530;2023-03-01T10:24:53;8.75;;;6.60;;
22382;SDS011;11359;45.802;13.530;2023-03-01T10:27:23;6.85;;;5.50;;
22382;SDS011;11359;45.802;13.530;2023-03-01T10:30:13;6.47;;;5.03;;
22382;SDS011;11359;45.802;13.530;2023-03-01T10:32:45;6.00;;;4.88;;
22382;SDS011;11359;45.802;13.530;2023-03-01T10:35:17;6.03;;;5.05;;
22382;SDS011;11359;45.802;13.530;2023-03-01T10:37:57;9.20;;;6.22;;
22382;SDS011;11359;45.802;13.530;2023-03-01T10:40:28;7.05;;;5.63;;
22382;SDS011;11359;45.802;13.530;2023-03-01T10:42:54;6.45;;;5.32;;
22382;SDS011;11359;45.802;13.530;2023-03-01T10:50:43;7.63;;;5.80;;
22382;SDS011;11359;45.802;13.530;2023-03-01T10:53:20;7.57;;;6.15;;
22382;SDS011;11359;45.802;13.530;2023-03-01T10:56:00;9.63;;;6.15;;
22382;SDS011;11359;45.802;13.530;2023-03-01T10:58:29;8.45;;;5.60;;
22382;SDS011;11359;45.802;13.530;2023-03-01T11:01:00;7.57;;;5.45;;
22382;SDS011;11359;45.802;13.530;2023-03-01T11:03:35;7.18;;;5.45;;
22382;SDS011;11359;45.802;13.530;2023-03-01T11:06:24;8.50;;;5.97;;
22382;SDS011;11359;45.802;13.530;2023-03-01T11:08:51;6.53;;;5.50;;
22382;SDS011;11359;45.802;13.530;2023-03-01T11:14:18;7.78;;;5.93;;
22382;SDS011;11359;45.802;13.530;2023-03-01T11:16:47;6.75;;;5.65;;
22382;SDS011;11359;45.802;13.530;2023-03-01T11:19:22;7.80;;;5.75;;
22382;SDS011;11359;45.802;13.530;2023-03-01T11:21:56;7.90;;;5.82;;
22382;SDS011;11359;45.802;13.530;2023-03-01T11:24:40;7.78;;;6.20;;
22382;SDS011;11359;45.802;13.530;2023-03-01T11:29:44;6.03;;;4.32;;
22382;SDS011;11359;45.802;13.530;2023-03-01T11:32:17;4.70;;;4.00;;
22382;SDS011;11359;45.802;13.530;2023-03-01T11:37:21;5.15;;;4.07;;
22382;SDS011;11359;45.802;13.530;2023-03-01T11:43:02;4.85;;;3.78;;
22382;SDS011;11359;45.802;13.530;2023-03-01T11:45:33;5.63;;;4.10;;
22382;SDS011;11359;45.802;13.530;2023-03-01T11:51:12;5.05;;;3.85;;
22382;SDS011;11359;45.802;13.530;2023-03-01T11:54:12;4.72;;;3.80;;
22382;SDS011;11359;45.802;13.530;2023-03-01T11:59:30;4.82;;;3.80;;
22382;SDS011;11359;45.802;13.530;2023-03-01T12:10:27;4.32;;;3.25;;
22382;SDS011;11359;45.802;13.530;2023-03-01T12:19:01;3.15;;;2.65;;
22382;SDS011;11359;45.802;13.530;2023-03-01T12:21:57;3.20;;;2.60;;
22382;SDS011;11359;45.802;13.530;2023-03-01T12:39:02;2.83;;;2.50;;
22382;SDS011;11359;45.802;13.530;2023-03-01T12:44:40;3.97;;;3.22;;
22382;SDS011;11359;45.802;13.530;2023-03-01T12:47:11;4.10;;;2.90;;
22382;SDS011;11359;45.802;13.530;2023-03-01T12:49:41;3.88;;;3.10;;
22382;SDS011;11359;45.802;13.530;2023-03-01T12:52:16;3.28;;;2.70;;
22382;SDS011;11359;45.802;13.530;2023-03-01T12:54:48;5.68;;;3.42;;
22382;SDS011;11359;45.802;13.530;2023-03-01T12:57:27;3.67;;;3.10;;
22382;SDS011;11359;45.802;13.530;2023-03-01T13:11:01;3.38;;;2.70;;
22382;SDS011;11359;45.802;13.530;2023-03-01T13:13:30;3.22;;;2.67;;
22382;SDS011;11359;45.802;13.530;2023-03-01T13:15:56;3.10;;;2.70;;
22382;SDS011;11359;45.802;13.530;2023-03-01T13:18:42;3.45;;;2.50;;
22382;SDS011;11359;45.802;13.530;2023-03-01T13:21:08;3.22;;;2.17;;
22382;SDS011;11359;45.802;13.530;2023-03-01T13:23:35;2.95;;;2.33;;
22382;SDS011;11359;45.802;13.530;2023-03-01T13:26:17;2.88;;;2.25;;
22382;SDS011;11359;45.802;13.530;2023-03-01T13:28:54;1.98;;;1.77;;
22382;SDS011;11359;45.802;13.530;2023-03-01T13:33:51;2.50;;;2.00;;
22382;SDS011;11359;45.802;13.530;2023-03-01T13:41:49;3.72;;;2.35;;
22382;SDS011;11359;45.802;13.530;2023-03-01T13:55:06;2.92;;;2.30;;
22382;SDS011;11359;45.802;13.530;2023-03-01T13:57:40;2.95;;;2.38;;
22382;SDS011;11359;45.802;13.530;2023-03-01T14:03:14;3.40;;;2.50;;
22382;SDS011;11359;45.802;13.530;2023-03-01T14:05:43;3.65;;;2.47;;
22382;SDS011;11359;45.802;13.530;2023-03-01T14:08:50;3.97;;;3.08;;
22382;SDS011;11359;45.802;13.530;2023-03-01T14:11:48;3.40;;;2.80;;
22382;SDS011;11359;45.802;13.530;2023-03-01T14:15:07;3.28;;;2.65;;
22382;SDS011;11359;45.802;13.530;2023-03-01T14:20:08;3.50;;;2.78;;
22382;SDS011;11359;45.802;13.530;2023-03-01T14:22:46;2.97;;;2.67;;
22382;SDS011;11359;45.802;13.530;2023-03-01T14:27:54;3.72;;;2.80;;
22382;SDS011;11359;45.802;13.530;2023-03-01T14:30:26;3.40;;;2.72;;
22382;SDS011;11359;45.802;13.530;2023-03-01T14:32:54;4.38;;;3.10;;
22382;SDS011;11359;45.802;13.530;2023-03-01T14:35:24;4.75;;;3.10;;
22382;SDS011;11359;45.802;13.530;2023-03-01T14:37:55;4.65;;;2.85;;
22382;SDS011;11359;45.802;13.530;2023-03-01T14:40:22;3.75;;;2.88;;
22382;SDS011;11359;45.802;13.530;2023-03-01T14:42:58;3.35;;;2.72;;
22382;SDS011;11359;45.802;13.530;2023-03-01T14:45:25;3.83;;;3.22;;
22382;SDS011;11359;45.802;13.530;2023-03-01T14:47:54;5.47;;;4.20;;
22382;SDS011;11359;45.802;13.530;2023-03-01T14:50:27;4.20;;;3.15;;
22382;SDS011;11359;45.802;13.530;2023-03-01T14:52:59;3.40;;;2.83;;
22382;SDS011;11359;45.802;13.530;2023-03-01T14:55:29;3.75;;;3.20;;
22382;SDS011;11359;45.802;13.530;2023-03-01T14:58:03;3.85;;;3.35;;
22382;SDS011;11359;45.802;13.530;2023-03-01T15:00:31;4.10;;;2.90;;
22382;SDS011;11359;45.802;13.530;2023-03-01T15:03:07;3.70;;;3.00;;
22382;SDS011;11359;45.802;13.530;2023-03-01T15:05:38;3.42;;;2.72;;
22382;SDS011;11359;45.802;13.530;2023-03-01T15:08:06;3.47;;;2.70;;
22382;SDS011;11359;45.802;13.530;2023-03-01T15:10:40;3.35;;;2.60;;
22382;SDS011;11359;45.802;13.530;2023-03-01T15:13:22;2.78;;;2.10;;
22382;SDS011;11359;45.802;13.530;2023-03-01T15:15:50;2.50;;;1.95;;
22382;SDS011;11359;45.802;13.530;2023-03-01T15:18:22;3.97;;;2.60;;
22382;SDS011;11359;45.802;13.530;2023-03-01T15:20:51;2.58;;;2.20;;
22382;SDS011;11359;45.802;13.530;2023-03-01T15:25:47;3.28;;;2.40;;
22382;SDS011;11359;45.802;13.530;2023-03-01T15:28:21;3.05;;;2.30;;
22382;SDS011;11359;45.802;13.530;2023-03-01T15:30:52;2.50;;;2.20;;
22382;SDS011;11359;45.802;13.530;2023-03-01T15:35:52;3.38;;;2.60;;
22382;SDS011;11359;45.802;13.530;2023-03-01T15:41:24;2.70;;;2.00;;
22382;SDS011;11359;45.802;13.530;2023-03-01T15:43:51;2.88;;;2.20;;
22382;SDS011;11359;45.802;13.530;2023-03-01T15:46:27;3.42;;;2.70;;
22382;SDS011;11359;45.802;13.530;2023-03-01T15:49:03;3.08;;;2.42;;
22382;SDS011;11359;45.802;13.530;2023-03-01T15:54:19;3.17;;;2.40;;
22382;SDS011;11359;45.802;13.530;2023-03-01T15:56:52;2.33;;;2.00;;
22382;SDS011;11359;45.802;13.530;2023-03-01T15:59:18;3.03;;;2.30;;
22382;SDS011;11359;45.802;13.530;2023-03-01T16:01:44;2.30;;;1.80;;
22382;SDS011;11359;45.802;13.530;2023-03-01T16:04:11;2.42;;;1.70;;
22382;SDS011;11359;45.802;13.530;2023-03-01T16:06:41;1.95;;;1.60;;
22382;SDS011;11359;45.802;13.530;2023-03-01T16:09:07;2.13;;;1.70;;
22382;SDS011;11359;45.802;13.530;2023-03-01T16:11:35;2.97;;;1.50;;
22382;SDS011;11359;45.802;13.530;2023-03-01T16:14:02;2.92;;;1.55;;
22382;SDS011;11359;45.802;13.530;2023-03-01T16:16:28;1.50;;;1.23;;
22382;SDS011;11359;45.802;13.530;2023-03-01T16:18:53;1.85;;;1.42;;
22382;SDS011;11359;45.802;13.530;2023-03-01T16:21:21;4.03;;;1.90;;
22382;SDS011;11359;45.802;13.530;2023-03-01T16:23:48;1.75;;;1.60;;
22382;SDS011;11359;45.802;13.530;2023-03-01T16:26:14;3.80;;;1.75;;
22382;SDS011;11359;45.802;13.530;2023-03-01T16:28:41;2.50;;;1.90;;
22382;SDS011;11359;45.802;13.530;2023-03-01T16:31:07;2.88;;;2.08;;
22382;SDS011;11359;45.802;13.530;2023-03-01T16:33:34;1.60;;;1.40;;
22382;SDS011;11359;45.802;13.530;2023-03-01T16:36:01;2.70;;;1.70;;
22382;SDS011;11359;45.802;13.530;2023-03-01T16:38:32;2.17;;;1.58;;
22382;SDS011;11359;45.802;13.530;2023-03-01T16:40:59;2.40;;;1.75;;
22382;SDS011;11359;45.802;13.530;2023-03-01T16:43:25;3.30;;;1.38;;
22382;SDS011;11359;45.802;13.530;2023-03-01T16:45:51;1.63;;;1.40;;
22382;SDS011;11359;45.802;13.530;2023-03-01T16:48:17;1.90;;;1.42;;
22382;SDS011;11359;45.802;13.530;2023-03-01T16:50:42;1.58;;;1.38;;
22382;SDS011;11359;45.802;13.530;2023-03-01T16:53:08;1.70;;;1.30;;
22382;SDS011;11359;45.802;13.530;2023-03-01T16:55:35;1.90;;;1.40;;
22382;SDS011;11359;45.802;13.530;2023-03-01T16:58:01;1.65;;;1.23;;
22382;SDS011;11359;45.802;13.530;2023-03-01T17:00:28;1.42;;;1.20;;
22382;SDS011;11359;45.802;13.530;2023-03-01T17:02:54;1.40;;;1.13;;